sensor_id;sensor_type;location;lat;lon;timestamp;P1;durP1;ratioP1;P2;durP2;ratioP2
2161;SDS011;1087;50.226;8.682;2023-03-20T00:01:09;8.67;;;7.70;;
2161;SDS011;1087;50.226;8.682;2023-03-20T00:03:37;9.13;;;8.23;;
2161;SDS011;1087;50.226;8.682;2023-03-20T00:06:03;9.73;;;8.83;;
2161;SDS011;1087;50.226;8.682;2023-03-20T00:08:28;10.47;;;9.37;;
2161;SDS011;1087;50.226;8.682;2023-03-20T00:10:56;10.03;;;9.13;;
2161;SDS011;1087;50.226;8.682;2023-03-20T00:13:24;9.73;;;8.80;;
2161;SDS011;1087;50.226;8.682;2023-03-20T00:15:52;10.53;;;8.70;;
2161;SDS011;1087;50.226;8.682;2023-03-20T00:18:19;10.33;;;9.37;;
2161;SDS011;1087;50.226;8.682;2023-03-20T00:20:47;10.20;;;9.30;;
2161;SDS011;1087;50.226;8.682;2023-03-20T00:23:14;10.90;;;9.90;;
2161;SDS011;1087;50.226;8.682;2023-03-20T00:25:40;11.03;;;9.93;;
2161;SDS011;1087;50.226;8.682;2023-03-20T00:30:52;11.67;;;10.67;;
2161;SDS011;1087;50.226;8.682;2023-03-20T00:33:17;10.93;;;9.90;;
2161;SDS011;1087;50.226;8.682;2023-03-20T00:35:43;10.50;;;9.40;;
2161;SDS011;1087;50.226;8.682;2023-03-20T00:38:08;9.93;;;9.00;;
2161;SDS011;1087;50.226;8.682;2023-03-20T00:40:34;11.00;;;9.63;;
2161;SDS011;1087;50.226;8.682;2023-03-20T00:43:00;10.27;;;9.27;;
2161;SDS011;1087;50.226;8.682;2023-03-20T00:45:27;10.07;;;9.10;;
2161;SDS011;1087;50.226;8.682;2023-03-20T00:47:55;10.67;;;9.67;;
2161;SDS011;1087;50.226;8.682;2023-03-20T00:50:25;10.30;;;9.40;;
2161;SDS011;1087;50.226;8.682;2023-03-20T00:52:56;10.57;;;9.60;;
2161;SDS011;1087;50.226;8.682;2023-03-20T00:55:23;11.33;;;10.20;;
2161;SDS011;1087;50.226;8.682;2023-03-20T00:57:52;9.60;;;8.80;;
2161;SDS011;1087;50.226;8.682;2023-03-20T01:00:33;10.33;;;9.33;;
2161;SDS011;1087;50.226;8.682;2023-03-20T01:03:05;15.10;;;11.03;;
2161;SDS011;1087;50.226;8.682;2023-03-20T01:05:36;11.33;;;9.93;;
2161;SDS011;1087;50.226;8.682;2023-03-20T01:08:01;10.23;;;9.23;;
2161;SDS011;1087;50.226;8.682;2023-03-20T01:10:28;10.90;;;9.90;;
2161;SDS011;1087;50.226;8.682;2023-03-20T01:12:57;11.93;;;10.73;;
2161;SDS011;1087;50.226;8.682;2023-03-20T01:15:26;11.33;;;10.33;;
2161;SDS011;1087;50.226;8.682;2023-03-20T01:17:56;9.90;;;8.90;;
2161;SDS011;1087;50.226;8.682;2023-03-20T01:20:23;9.77;;;8.93;;
2161;SDS011;1087;50.226;8.682;2023-03-20T01:22:51;9.73;;;8.80;;
2161;SDS011;1087;50.226;8.682;2023-03-20T01:25:18;10.50;;;9.43;;
2161;SDS011;1087;50.226;8.682;2023-03-20T01:27:45;9.47;;;8.57;;
2161;SDS011;1087;50.226;8.682;2023-03-20T01:30:20;9.40;;;8.50;;
2161;SDS011;1087;50.226;8.682;2023-03-20T01:32:50;9.47;;;8.67;;
2161;SDS011;1087;50.226;8.682;2023-03-20T01:35:17;8.93;;;8.13;;
2161;SDS011;1087;50.226;8.682;2023-03-20T01:37:45;8.77;;;8.07;;
2161;SDS011;1087;50.226;8.682;2023-03-20T01:42:58;9.23;;;8.23;;
2161;SDS011;1087;50.226;8.682;2023-03-20T01:45:27;8.50;;;7.80;;
2161;SDS011;1087;50.226;8.682;2023-03-20T01:47:56;9.67;;;7.80;;
2161;SDS011;1087;50.226;8.682;2023-03-20T01:50:24;9.10;;;8.30;;
2161;SDS011;1087;50.226;8.682;2023-03-20T01:53:03;10.40;;;9.40;;
2161;SDS011;1087;50.226;8.682;2023-03-20T01:55:34;9.87;;;8.90;;
2161;SDS011;1087;50.226;8.682;2023-03-20T01:58:01;9.43;;;8.63;;
2161;SDS011;1087;50.226;8.682;2023-03-20T02:00:31;10.27;;;9.17;;
2161;SDS011;1087;50.226;8.682;2023-03-20T02:02:58;9.53;;;8.63;;
2161;SDS011;1087;50.226;8.682;2023-03-20T02:05:24;9.37;;;8.47;;
2161;SDS011;1087;50.226;8.682;2023-03-20T02:10:44;11.70;;;9.63;;
2161;SDS011;1087;50.226;8.682;2023-03-20T02:13:11;9.33;;;8.47;;
2161;SDS011;1087;50.226;8.682;2023-03-20T02:16:01;9.63;;;8.73;;
2161;SDS011;1087;50.226;8.682;2023-03-20T02:18:32;9.17;;;8.20;;
2161;SDS011;1087;50.226;8.682;2023-03-20T02:27:08;9.33;;;8.43;;
2161;SDS011;1087;50.226;8.682;2023-03-20T02:36:12;9.83;;;8.83;;
2161;SDS011;1087;50.226;8.682;2023-03-20T02:46:59;11.77;;;10.70;;
2161;SDS011;1087;50.226;8.682;2023-03-20T02:50:07;11.30;;;10.30;;
2161;SDS011;1087;50.226;8.682;2023-03-20T02:55:47;10.00;;;9.00;;
2161;SDS011;1087;50.226;8.682;2023-03-20T02:58:25;9.80;;;8.90;;
2161;SDS011;1087;50.226;8.682;2023-03-20T03:04:07;10.67;;;9.30;;
2161;SDS011;1087;50.226;8.682;2023-03-20T03:06:37;10.20;;;9.20;;
2161;SDS011;1087;50.226;8.682;2023-03-20T03:09:08;10.00;;;9.00;;
2161;SDS011;1087;50.226;8.682;2023-03-20T03:11:44;10.60;;;9.57;;
2161;SDS011;1087;50.226;8.682;2023-03-20T03:14:17;11.47;;;10.10;;
2161;SDS011;1087;50.226;8.682;2023-03-20T03:16:52;10.00;;;8.97;;
2161;SDS011;1087;50.226;8.682;2023-03-20T03:19:21;12.07;;;10.97;;
2161;SDS011;1087;50.226;8.682;2023-03-20T03:21:50;9.77;;;8.87;;
2161;SDS011;1087;50.226;8.682;2023-03-20T03:24:37;9.83;;;8.83;;
2161;SDS011;1087;50.226;8.682;2023-03-20T03:27:15;8.77;;;7.97;;
2161;SDS011;1087;50.226;8.682;2023-03-20T03:29:54;11.33;;;10.23;;
2161;SDS011;1087;50.226;8.682;2023-03-20T03:32:29;13.10;;;11.50;;
2161;SDS011;1087;50.226;8.682;2023-03-20T03:34:58;9.87;;;8.83;;
2161;SDS011;1087;50.226;8.682;2023-03-20T03:37:32;10.47;;;9.37;;
2161;SDS011;1087;50.226;8.682;2023-03-20T03:40:15;14.07;;;11.77;;
2161;SDS011;1087;50.226;8.682;2023-03-20T03:42:54;11.53;;;9.87;;
2161;SDS011;1087;50.226;8.682;2023-03-20T03:45:30;11.77;;;10.00;;
2161;SDS011;1087;50.226;8.682;2023-03-20T03:48:10;10.97;;;8.20;;
2161;SDS011;1087;50.226;8.682;2023-03-20T03:50:40;11.10;;;9.87;;
2161;SDS011;1087;50.226;8.682;2023-03-20T03:53:12;10.53;;;9.10;;
2161;SDS011;1087;50.226;8.682;2023-03-20T03:55:46;12.00;;;9.43;;
2161;SDS011;1087;50.226;8.682;2023-03-20T03:58:21;10.97;;;9.87;;
2161;SDS011;1087;50.226;8.682;2023-03-20T04:00:48;9.70;;;8.37;;
2161;SDS011;1087;50.226;8.682;2023-03-20T04:03:16;11.63;;;9.60;;
2161;SDS011;1087;50.226;8.682;2023-03-20T04:05:45;10.60;;;8.93;;
2161;SDS011;1087;50.226;8.682;2023-03-20T04:08:11;11.33;;;9.30;;
2161;SDS011;1087;50.226;8.682;2023-03-20T04:10:40;10.60;;;9.50;;
2161;SDS011;1087;50.226;8.682;2023-03-20T04:13:05;10.07;;;9.07;;
2161;SDS011;1087;50.226;8.682;2023-03-20T04:15:31;8.70;;;7.80;;
2161;SDS011;1087;50.226;8.682;2023-03-20T04:17:57;11.20;;;9.80;;
2161;SDS011;1087;50.226;8.682;2023-03-20T04:20:22;10.17;;;9.17;;
2161;SDS011;1087;50.226;8.682;2023-03-20T04:22:48;10.73;;;9.20;;
2161;SDS011;1087;50.226;8.682;2023-03-20T04:25:15;11.80;;;9.90;;
2161;SDS011;1087;50.226;8.682;2023-03-20T04:27:46;12.83;;;10.20;;
2161;SDS011;1087;50.226;8.682;2023-03-20T04:30:12;10.90;;;9.90;;
2161;SDS011;1087;50.226;8.682;2023-03-20T04:32:37;9.47;;;8.53;;
2161;SDS011;1087;50.226;8.682;2023-03-20T04:35:03;12.60;;;10.43;;
2161;SDS011;1087;50.226;8.682;2023-03-20T04:37:30;11.70;;;8.60;;
2161;SDS011;1087;50.226;8.682;2023-03-20T04:39:55;10.90;;;9.37;;
2161;SDS011;1087;50.226;8.682;2023-03-20T04:42:21;10.30;;;9.40;;
2161;SDS011;1087;50.226;8.682;2023-03-20T04:44:46;10.53;;;9.43;;
2161;SDS011;1087;50.226;8.682;2023-03-20T04:47:12;11.03;;;9.37;;
2161;SDS011;1087;50.226;8.682;2023-03-20T04:49:37;14.30;;;10.83;;
2161;SDS011;1087;50.226;8.682;2023-03-20T04:52:03;11.63;;;10.33;;
2161;SDS011;1087;50.226;8.682;2023-03-20T04:54:28;10.97;;;9.87;;
2161;SDS011;1087;50.226;8.682;2023-03-20T04:56:54;12.27;;;10.97;;
2161;SDS011;1087;50.226;8.682;2023-03-20T04:59:19;13.67;;;11.90;;
2161;SDS011;1087;50.226;8.682;2023-03-20T05:01:45;12.73;;;11.43;;
2161;SDS011;1087;50.226;8.682;2023-03-20T05:04:10;11.77;;;10.30;;
2161;SDS011;1087;50.226;8.682;2023-03-20T05:06:36;12.47;;;11.17;;
2161;SDS011;1087;50.226;8.682;2023-03-20T05:09:02;11.83;;;10.63;;
2161;SDS011;1087;50.226;8.682;2023-03-20T05:11:28;12.93;;;11.63;;
2161;SDS011;1087;50.226;8.682;2023-03-20T05:13:54;10.90;;;9.80;;
2161;SDS011;1087;50.226;8.682;2023-03-20T05:16:19;10.37;;;9.40;;
2161;SDS011;1087;50.226;8.682;2023-03-20T05:18:45;10.67;;;9.50;;
2161;SDS011;1087;50.226;8.682;2023-03-20T05:21:11;11.50;;;9.73;;
2161;SDS011;1087;50.226;8.682;2023-03-20T05:23:36;10.60;;;9.60;;
2161;SDS011;1087;50.226;8.682;2023-03-20T05:26:02;17.20;;;12.50;;
2161;SDS011;1087;50.226;8.682;2023-03-20T05:28:28;13.87;;;12.47;;
2161;SDS011;1087;50.226;8.682;2023-03-20T05:30:53;13.23;;;11.77;;
2161;SDS011;1087;50.226;8.682;2023-03-20T05:33:19;13.10;;;11.30;;
2161;SDS011;1087;50.226;8.682;2023-03-20T05:35:45;10.30;;;9.30;;
2161;SDS011;1087;50.226;8.682;2023-03-20T05:38:10;13.33;;;11.57;;
2161;SDS011;1087;50.226;8.682;2023-03-20T05:40:36;13.13;;;11.17;;
2161;SDS011;1087;50.226;8.682;2023-03-20T05:43:02;13.17;;;11.77;;
2161;SDS011;1087;50.226;8.682;2023-03-20T05:45:27;16.80;;;12.07;;
2161;SDS011;1087;50.226;8.682;2023-03-20T05:47:53;26.90;;;17.90;;
2161;SDS011;1087;50.226;8.682;2023-03-20T05:50:18;26.53;;;17.70;;
2161;SDS011;1087;50.226;8.682;2023-03-20T05:52:47;31.23;;;20.50;;
2161;SDS011;1087;50.226;8.682;2023-03-20T05:55:13;29.63;;;18.93;;
2161;SDS011;1087;50.226;8.682;2023-03-20T05:57:39;29.50;;;20.27;;
2161;SDS011;1087;50.226;8.682;2023-03-20T06:00:05;33.63;;;19.70;;
2161;SDS011;1087;50.226;8.682;2023-03-20T06:02:32;29.50;;;18.90;;
2161;SDS011;1087;50.226;8.682;2023-03-20T06:04:58;33.70;;;20.23;;
2161;SDS011;1087;50.226;8.682;2023-03-20T06:07:23;33.27;;;21.10;;
2161;SDS011;1087;50.226;8.682;2023-03-20T06:09:49;35.53;;;20.80;;
2161;SDS011;1087;50.226;8.682;2023-03-20T06:12:16;31.67;;;20.13;;
2161;SDS011;1087;50.226;8.682;2023-03-20T06:14:41;32.07;;;21.47;;
2161;SDS011;1087;50.226;8.682;2023-03-20T06:17:07;27.10;;;19.10;;
2161;SDS011;1087;50.226;8.682;2023-03-20T06:19:33;28.87;;;17.57;;
2161;SDS011;1087;50.226;8.682;2023-03-20T06:21:58;29.20;;;19.17;;
2161;SDS011;1087;50.226;8.682;2023-03-20T06:24:24;29.90;;;19.37;;
2161;SDS011;1087;50.226;8.682;2023-03-20T06:26:50;30.30;;;18.97;;
2161;SDS011;1087;50.226;8.682;2023-03-20T06:29:15;29.30;;;19.70;;
2161;SDS011;1087;50.226;8.682;2023-03-20T06:31:41;31.17;;;19.67;;
2161;SDS011;1087;50.226;8.682;2023-03-20T06:34:06;32.57;;;20.80;;
2161;SDS011;1087;50.226;8.682;2023-03-20T06:36:32;35.37;;;22.43;;
2161;SDS011;1087;50.226;8.682;2023-03-20T06:38:58;32.27;;;21.40;;
2161;SDS011;1087;50.226;8.682;2023-03-20T06:41:23;37.87;;;22.27;;
2161;SDS011;1087;50.226;8.682;2023-03-20T06:43:49;36.10;;;20.50;;
2161;SDS011;1087;50.226;8.682;2023-03-20T06:46:15;30.73;;;19.73;;
2161;SDS011;1087;50.226;8.682;2023-03-20T06:48:40;35.67;;;20.47;;
2161;SDS011;1087;50.226;8.682;2023-03-20T06:51:06;34.40;;;21.80;;
2161;SDS011;1087;50.226;8.682;2023-03-20T06:53:31;31.90;;;21.37;;
2161;SDS011;1087;50.226;8.682;2023-03-20T06:55:57;34.20;;;20.80;;
2161;SDS011;1087;50.226;8.682;2023-03-20T06:58:23;29.60;;;19.67;;
2161;SDS011;1087;50.226;8.682;2023-03-20T07:00:49;33.87;;;20.40;;
2161;SDS011;1087;50.226;8.682;2023-03-20T07:03:14;30.57;;;21.43;;
2161;SDS011;1087;50.226;8.682;2023-03-20T07:05:40;32.00;;;21.20;;
2161;SDS011;1087;50.226;8.682;2023-03-20T07:08:06;34.97;;;21.57;;
2161;SDS011;1087;50.226;8.682;2023-03-20T07:10:32;33.03;;;19.80;;
2161;SDS011;1087;50.226;8.682;2023-03-20T07:12:58;26.17;;;16.30;;
2161;SDS011;1087;50.226;8.682;2023-03-20T07:15:25;21.23;;;15.17;;
2161;SDS011;1087;50.226;8.682;2023-03-20T07:17:51;23.60;;;15.23;;
2161;SDS011;1087;50.226;8.682;2023-03-20T07:20:17;24.57;;;15.80;;
2161;SDS011;1087;50.226;8.682;2023-03-20T07:22:42;26.13;;;16.53;;
2161;SDS011;1087;50.226;8.682;2023-03-20T07:25:08;20.73;;;14.20;;
2161;SDS011;1087;50.226;8.682;2023-03-20T07:27:34;23.20;;;15.80;;
2161;SDS011;1087;50.226;8.682;2023-03-20T07:30:01;20.70;;;14.47;;
2161;SDS011;1087;50.226;8.682;2023-03-20T07:32:28;21.77;;;15.47;;
2161;SDS011;1087;50.226;8.682;2023-03-20T07:34:54;21.83;;;16.07;;
2161;SDS011;1087;50.226;8.682;2023-03-20T07:37:19;24.27;;;15.47;;
2161;SDS011;1087;50.226;8.682;2023-03-20T07:39:45;22.33;;;15.30;;
2161;SDS011;1087;50.226;8.682;2023-03-20T07:42:10;23.43;;;17.37;;
2161;SDS011;1087;50.226;8.682;2023-03-20T07:44:37;21.40;;;16.70;;
2161;SDS011;1087;50.226;8.682;2023-03-20T07:47:03;22.60;;;15.70;;
2161;SDS011;1087;50.226;8.682;2023-03-20T07:49:30;25.57;;;17.37;;
2161;SDS011;1087;50.226;8.682;2023-03-20T07:51:56;28.50;;;17.83;;
2161;SDS011;1087;50.226;8.682;2023-03-20T07:54:21;23.80;;;16.20;;
2161;SDS011;1087;50.226;8.682;2023-03-20T07:56:47;24.27;;;15.80;;
2161;SDS011;1087;50.226;8.682;2023-03-20T07:59:14;22.33;;;16.60;;
2161;SDS011;1087;50.226;8.682;2023-03-20T08:01:40;22.93;;;15.40;;
2161;SDS011;1087;50.226;8.682;2023-03-20T08:04:06;24.03;;;17.70;;
2161;SDS011;1087;50.226;8.682;2023-03-20T08:06:32;28.23;;;17.00;;
2161;SDS011;1087;50.226;8.682;2023-03-20T08:08:57;25.53;;;17.40;;
2161;SDS011;1087;50.226;8.682;2023-03-20T08:11:23;25.17;;;17.40;;
2161;SDS011;1087;50.226;8.682;2023-03-20T08:13:48;25.57;;;17.20;;
2161;SDS011;1087;50.226;8.682;2023-03-20T08:16:14;24.50;;;16.13;;
2161;SDS011;1087;50.226;8.682;2023-03-20T08:18:40;27.17;;;16.03;;
2161;SDS011;1087;50.226;8.682;2023-03-20T08:21:06;30.17;;;18.77;;
2161;SDS011;1087;50.226;8.682;2023-03-20T08:23:32;27.37;;;17.80;;
2161;SDS011;1087;50.226;8.682;2023-03-20T08:25:58;28.93;;;19.30;;
2161;SDS011;1087;50.226;8.682;2023-03-20T08:28:23;27.57;;;18.60;;
2161;SDS011;1087;50.226;8.682;2023-03-20T08:30:49;29.93;;;19.70;;
2161;SDS011;1087;50.226;8.682;2023-03-20T08:33:15;34.40;;;20.47;;
2161;SDS011;1087;50.226;8.682;2023-03-20T08:35:42;33.30;;;19.87;;
2161;SDS011;1087;50.226;8.682;2023-03-20T08:38:10;31.23;;;21.00;;
2161;SDS011;1087;50.226;8.682;2023-03-20T08:40:40;41.90;;;23.67;;
2161;SDS011;1087;50.226;8.682;2023-03-20T08:43:06;36.33;;;23.20;;
2161;SDS011;1087;50.226;8.682;2023-03-20T08:45:31;37.47;;;23.00;;
2161;SDS011;1087;50.226;8.682;2023-03-20T08:47:57;39.30;;;22.27;;
2161;SDS011;1087;50.226;8.682;2023-03-20T08:50:22;38.80;;;23.53;;
2161;SDS011;1087;50.226;8.682;2023-03-20T08:52:48;37.70;;;22.73;;
2161;SDS011;1087;50.226;8.682;2023-03-20T08:55:14;33.37;;;21.70;;
2161;SDS011;1087;50.226;8.682;2023-03-20T08:57:40;35.03;;;21.97;;
2161;SDS011;1087;50.226;8.682;2023-03-20T09:00:06;34.90;;;22.43;;
2161;SDS011;1087;50.226;8.682;2023-03-20T09:02:34;37.80;;;22.50;;
2161;SDS011;1087;50.226;8.682;2023-03-20T09:05:00;29.87;;;20.63;;
2161;SDS011;1087;50.226;8.682;2023-03-20T09:07:26;34.37;;;22.70;;
2161;SDS011;1087;50.226;8.682;2023-03-20T09:09:52;31.43;;;21.33;;
2161;SDS011;1087;50.226;8.682;2023-03-20T09:12:18;30.27;;;20.77;;
2161;SDS011;1087;50.226;8.682;2023-03-20T09:14:44;30.17;;;19.90;;
2161;SDS011;1087;50.226;8.682;2023-03-20T09:17:09;25.10;;;17.30;;
2161;SDS011;1087;50.226;8.682;2023-03-20T09:19:35;27.53;;;18.60;;
2161;SDS011;1087;50.226;8.682;2023-03-20T09:22:03;28.37;;;19.23;;
2161;SDS011;1087;50.226;8.682;2023-03-20T09:24:30;26.83;;;18.90;;
2161;SDS011;1087;50.226;8.682;2023-03-20T09:26:56;33.90;;;19.13;;
2161;SDS011;1087;50.226;8.682;2023-03-20T09:29:22;27.23;;;18.93;;
2161;SDS011;1087;50.226;8.682;2023-03-20T09:31:48;27.30;;;19.20;;
2161;SDS011;1087;50.226;8.682;2023-03-20T09:34:13;28.30;;;19.80;;
2161;SDS011;1087;50.226;8.682;2023-03-20T09:36:39;27.37;;;19.57;;
2161;SDS011;1087;50.226;8.682;2023-03-20T09:39:05;23.90;;;17.90;;
2161;SDS011;1087;50.226;8.682;2023-03-20T09:41:30;22.20;;;14.57;;
2161;SDS011;1087;50.226;8.682;2023-03-20T09:49:21;23.23;;;17.97;;
2161;SDS011;1087;50.226;8.682;2023-03-20T09:52:09;27.03;;;18.83;;
2161;SDS011;1087;50.226;8.682;2023-03-20T09:55:05;29.13;;;18.20;;
2161;SDS011;1087;50.226;8.682;2023-03-20T09:57:39;27.10;;;18.33;;
2161;SDS011;1087;50.226;8.682;2023-03-20T10:00:11;34.10;;;21.33;;
2161;SDS011;1087;50.226;8.682;2023-03-20T10:02:49;27.20;;;18.43;;
2161;SDS011;1087;50.226;8.682;2023-03-20T10:05:37;30.50;;;18.67;;
2161;SDS011;1087;50.226;8.682;2023-03-20T10:08:11;32.23;;;20.33;;
2161;SDS011;1087;50.226;8.682;2023-03-20T10:18:37;31.40;;;18.97;;
2161;SDS011;1087;50.226;8.682;2023-03-20T10:21:14;26.43;;;17.40;;
2161;SDS011;1087;50.226;8.682;2023-03-20T10:26:20;24.07;;;16.77;;
2161;SDS011;1087;50.226;8.682;2023-03-20T10:28:50;25.87;;;17.67;;
2161;SDS011;1087;50.226;8.682;2023-03-20T10:39:37;26.00;;;17.20;;
2161;SDS011;1087;50.226;8.682;2023-03-20T10:42:24;26.00;;;17.20;;
2161;SDS011;1087;50.226;8.682;2023-03-20T10:44:58;24.77;;;17.50;;
2161;SDS011;1087;50.226;8.682;2023-03-20T10:47:46;28.20;;;19.33;;
2161;SDS011;1087;50.226;8.682;2023-03-20T10:50:16;27.40;;;18.57;;
2161;SDS011;1087;50.226;8.682;2023-03-20T10:52:44;29.93;;;18.97;;
2161;SDS011;1087;50.226;8.682;2023-03-20T10:55:23;26.27;;;18.43;;
2161;SDS011;1087;50.226;8.682;2023-03-20T10:57:57;24.20;;;15.93;;
2161;SDS011;1087;50.226;8.682;2023-03-20T11:00:27;22.90;;;16.80;;
2161;SDS011;1087;50.226;8.682;2023-03-20T11:02:52;25.13;;;18.37;;
2161;SDS011;1087;50.226;8.682;2023-03-20T11:05:29;26.50;;;17.50;;
2161;SDS011;1087;50.226;8.682;2023-03-20T11:08:00;20.90;;;15.10;;
2161;SDS011;1087;50.226;8.682;2023-03-20T11:10:30;15.27;;;11.80;;
2161;SDS011;1087;50.226;8.682;2023-03-20T11:12:57;15.50;;;12.50;;
2161;SDS011;1087;50.226;8.682;2023-03-20T11:15:39;17.60;;;12.43;;
2161;SDS011;1087;50.226;8.682;2023-03-20T11:18:05;18.90;;;13.30;;
2161;SDS011;1087;50.226;8.682;2023-03-20T11:20:33;17.77;;;13.20;;
2161;SDS011;1087;50.226;8.682;2023-03-20T11:23:02;17.53;;;12.47;;
2161;SDS011;1087;50.226;8.682;2023-03-20T11:25:31;16.20;;;11.70;;
2161;SDS011;1087;50.226;8.682;2023-03-20T11:28:19;18.83;;;13.93;;
2161;SDS011;1087;50.226;8.682;2023-03-20T11:30:58;13.57;;;10.23;;
2161;SDS011;1087;50.226;8.682;2023-03-20T11:33:29;15.90;;;12.10;;
2161;SDS011;1087;50.226;8.682;2023-03-20T11:35:57;15.50;;;11.40;;
2161;SDS011;1087;50.226;8.682;2023-03-20T11:38:23;12.20;;;10.63;;
2161;SDS011;1087;50.226;8.682;2023-03-20T11:40:49;14.87;;;10.23;;
2161;SDS011;1087;50.226;8.682;2023-03-20T11:43:22;13.67;;;10.77;;
2161;SDS011;1087;50.226;8.682;2023-03-20T11:45:54;13.90;;;10.70;;
2161;SDS011;1087;50.226;8.682;2023-03-20T11:48:23;14.20;;;10.40;;
2161;SDS011;1087;50.226;8.682;2023-03-20T11:51:04;11.23;;;9.07;;
2161;SDS011;1087;50.226;8.682;2023-03-20T11:53:38;10.43;;;8.30;;
2161;SDS011;1087;50.226;8.682;2023-03-20T11:56:25;8.33;;;7.43;;
2161;SDS011;1087;50.226;8.682;2023-03-20T11:59:00;12.03;;;8.93;;
2161;SDS011;1087;50.226;8.682;2023-03-20T12:01:37;14.07;;;10.00;;
2161;SDS011;1087;50.226;8.682;2023-03-20T12:04:06;11.43;;;8.73;;
2161;SDS011;1087;50.226;8.682;2023-03-20T12:06:41;12.20;;;8.37;;
2161;SDS011;1087;50.226;8.682;2023-03-20T12:14:52;11.07;;;8.47;;
2161;SDS011;1087;50.226;8.682;2023-03-20T12:17:33;12.07;;;8.50;;
2161;SDS011;1087;50.226;8.682;2023-03-20T12:20:05;11.00;;;8.67;;
2161;SDS011;1087;50.226;8.682;2023-03-20T12:22:36;9.60;;;8.20;;
2161;SDS011;1087;50.226;8.682;2023-03-20T12:25:17;10.80;;;7.90;;
2161;SDS011;1087;50.226;8.682;2023-03-20T12:27:55;8.00;;;7.20;;
2161;SDS011;1087;50.226;8.682;2023-03-20T12:30:53;10.03;;;8.23;;
2161;SDS011;1087;50.226;8.682;2023-03-20T12:33:44;11.20;;;8.10;;
2161;SDS011;1087;50.226;8.682;2023-03-20T12:36:17;15.97;;;14.03;;
2161;SDS011;1087;50.226;8.682;2023-03-20T12:38:56;8.93;;;6.77;;
2161;SDS011;1087;50.226;8.682;2023-03-20T12:41:27;9.13;;;6.53;;
2161;SDS011;1087;50.226;8.682;2023-03-20T12:44:15;8.30;;;5.80;;
2161;SDS011;1087;50.226;8.682;2023-03-20T12:57:38;9.00;;;7.03;;
2161;SDS011;1087;50.226;8.682;2023-03-20T13:00:21;9.00;;;7.70;;
2161;SDS011;1087;50.226;8.682;2023-03-20T13:03:05;6.90;;;6.20;;
2161;SDS011;1087;50.226;8.682;2023-03-20T13:05:41;8.77;;;6.80;;
2161;SDS011;1087;50.226;8.682;2023-03-20T13:11:27;6.53;;;5.53;;
2161;SDS011;1087;50.226;8.682;2023-03-20T13:25:43;3.87;;;3.27;;
2161;SDS011;1087;50.226;8.682;2023-03-20T13:28:33;3.20;;;2.90;;
2161;SDS011;1087;50.226;8.682;2023-03-20T13:42:02;4.00;;;3.00;;
2161;SDS011;1087;50.226;8.682;2023-03-20T13:44:33;2.67;;;2.47;;
2161;SDS011;1087;50.226;8.682;2023-03-20T13:47:09;3.10;;;2.70;;
2161;SDS011;1087;50.226;8.682;2023-03-20T13:49:55;2.57;;;2.27;;
2161;SDS011;1087;50.226;8.682;2023-03-20T13:52:28;3.30;;;2.60;;
2161;SDS011;1087;50.226;8.682;2023-03-20T14:01:07;2.70;;;2.50;;
2161;SDS011;1087;50.226;8.682;2023-03-20T14:04:01;3.40;;;2.30;;
2161;SDS011;1087;50.226;8.682;2023-03-20T14:10:31;2.40;;;2.20;;
2161;SDS011;1087;50.226;8.682;2023-03-20T14:13:32;4.33;;;2.47;;
2161;SDS011;1087;50.226;8.682;2023-03-20T14:15:54;2.30;;;2.10;;
2161;SDS011;1087;50.226;8.682;2023-03-20T14:18:22;4.37;;;2.50;;
2161;SDS011;1087;50.226;8.682;2023-03-20T14:20:57;3.07;;;2.10;;
2161;SDS011;1087;50.226;8.682;2023-03-20T14:23:34;6.03;;;3.27;;
2161;SDS011;1087;50.226;8.682;2023-03-20T14:26:06;3.07;;;2.23;;
2161;SDS011;1087;50.226;8.682;2023-03-20T14:28:45;3.13;;;2.50;;
2161;SDS011;1087;50.226;8.682;2023-03-20T14:31:23;4.33;;;2.40;;
2161;SDS011;1087;50.226;8.682;2023-03-20T14:33:59;2.33;;;2.13;;
2161;SDS011;1087;50.226;8.682;2023-03-20T14:36:55;2.80;;;2.20;;
2161;SDS011;1087;50.226;8.682;2023-03-20T14:47:21;4.87;;;2.93;;
2161;SDS011;1087;50.226;8.682;2023-03-20T14:50:08;6.27;;;2.87;;
2161;SDS011;1087;50.226;8.682;2023-03-20T14:55:30;3.40;;;3.10;;
2161;SDS011;1087;50.226;8.682;2023-03-20T14:58:01;3.17;;;2.87;;
2161;SDS011;1087;50.226;8.682;2023-03-20T15:00:47;5.60;;;3.23;;
2161;SDS011;1087;50.226;8.682;2023-03-20T15:03:14;4.53;;;2.87;;
2161;SDS011;1087;50.226;8.682;2023-03-20T15:05:41;3.13;;;2.83;;
2161;SDS011;1087;50.226;8.682;2023-03-20T15:10:43;4.27;;;3.53;;
2161;SDS011;1087;50.226;8.682;2023-03-20T15:13:13;4.63;;;3.43;;
2161;SDS011;1087;50.226;8.682;2023-03-20T15:15:50;7.23;;;3.83;;
2161;SDS011;1087;50.226;8.682;2023-03-20T15:18:25;3.40;;;3.03;;
2161;SDS011;1087;50.226;8.682;2023-03-20T15:20:51;8.40;;;3.63;;
2161;SDS011;1087;50.226;8.682;2023-03-20T15:23:19;4.43;;;3.40;;
2161;SDS011;1087;50.226;8.682;2023-03-20T15:25:46;6.77;;;2.90;;
2161;SDS011;1087;50.226;8.682;2023-03-20T15:28:19;3.80;;;3.03;;
2161;SDS011;1087;50.226;8.682;2023-03-20T15:30:48;4.60;;;3.33;;
2161;SDS011;1087;50.226;8.682;2023-03-20T15:33:20;4.30;;;2.70;;
2161;SDS011;1087;50.226;8.682;2023-03-20T15:35:47;4.13;;;2.80;;
2161;SDS011;1087;50.226;8.682;2023-03-20T15:38:15;2.60;;;2.30;;
2161;SDS011;1087;50.226;8.682;2023-03-20T15:40:42;2.47;;;2.10;;
2161;SDS011;1087;50.226;8.682;2023-03-20T15:43:16;2.20;;;2.00;;
2161;SDS011;1087;50.226;8.682;2023-03-20T15:45:45;2.33;;;1.90;;
2161;SDS011;1087;50.226;8.682;2023-03-20T15:48:12;2.67;;;2.37;;
2161;SDS011;1087;50.226;8.682;2023-03-20T15:50:40;2.20;;;2.00;;
2161;SDS011;1087;50.226;8.682;2023-03-20T15:53:10;3.70;;;2.53;;
2161;SDS011;1087;50.226;8.682;2023-03-20T15:55:40;2.70;;;2.30;;
2161;SDS011;1087;50.226;8.682;2023-03-20T15:58:11;2.27;;;2.07;;
2161;SDS011;1087;50.226;8.682;2023-03-20T16:00:39;2.47;;;2.17;;
2161;SDS011;1087;50.226;8.682;2023-03-20T16:03:12;2.20;;;2.00;;
2161;SDS011;1087;50.226;8.682;2023-03-20T16:05:41;2.63;;;2.40;;
2161;SDS011;1087;50.226;8.682;2023-03-20T16:08:12;3.47;;;2.10;;
2161;SDS011;1087;50.226;8.682;2023-03-20T16:10:40;2.30;;;1.60;;
2161;SDS011;1087;50.226;8.682;2023-03-20T16:13:13;3.20;;;2.10;;
2161;SDS011;1087;50.226;8.682;2023-03-20T16:15:43;3.13;;;2.83;;
2161;SDS011;1087;50.226;8.682;2023-03-20T16:18:10;2.30;;;2.10;;
2161;SDS011;1087;50.226;8.682;2023-03-20T16:20:41;2.90;;;2.40;;
2161;SDS011;1087;50.226;8.682;2023-03-20T16:23:19;2.43;;;2.20;;
2161;SDS011;1087;50.226;8.682;2023-03-20T16:25:57;2.43;;;2.20;;
2161;SDS011;1087;50.226;8.682;2023-03-20T16:28:26;3.30;;;2.50;;
2161;SDS011;1087;50.226;8.682;2023-03-20T16:30:54;3.37;;;2.90;;
2161;SDS011;1087;50.226;8.682;2023-03-20T16:33:31;3.90;;;2.40;;
2161;SDS011;1087;50.226;8.682;2023-03-20T16:35:57;3.33;;;2.50;;
2161;SDS011;1087;50.226;8.682;2023-03-20T16:38:29;2.40;;;2.20;;
2161;SDS011;1087;50.226;8.682;2023-03-20T16:43:48;3.43;;;2.13;;
2161;SDS011;1087;50.226;8.682;2023-03-20T16:46:21;2.73;;;2.20;;
2161;SDS011;1087;50.226;8.682;2023-03-20T16:48:52;2.47;;;2.10;;
2161;SDS011;1087;50.226;8.682;2023-03-20T16:51:21;2.83;;;2.40;;
2161;SDS011;1087;50.226;8.682;2023-03-20T16:53:54;2.53;;;2.27;;
2161;SDS011;1087;50.226;8.682;2023-03-20T16:56:24;2.60;;;2.40;;
2161;SDS011;1087;50.226;8.682;2023-03-20T16:58:52;3.53;;;2.33;;
2161;SDS011;1087;50.226;8.682;2023-03-20T17:01:19;2.60;;;2.23;;
2161;SDS011;1087;50.226;8.682;2023-03-20T17:11:25;2.20;;;2.00;;
2161;SDS011;1087;50.226;8.682;2023-03-20T17:13:54;2.40;;;2.20;;
2161;SDS011;1087;50.226;8.682;2023-03-20T17:16:20;3.67;;;2.53;;
2161;SDS011;1087;50.226;8.682;2023-03-20T17:18:49;3.13;;;2.30;;
2161;SDS011;1087;50.226;8.682;2023-03-20T17:21:23;2.93;;;2.43;;
2161;SDS011;1087;50.226;8.682;2023-03-20T17:23:49;2.60;;;2.40;;
2161;SDS011;1087;50.226;8.682;2023-03-20T17:26:15;2.67;;;2.30;;
2161;SDS011;1087;50.226;8.682;2023-03-20T17:28:40;3.93;;;2.57;;
2161;SDS011;1087;50.226;8.682;2023-03-20T17:31:08;3.77;;;2.43;;
2161;SDS011;1087;50.226;8.682;2023-03-20T17:33:38;2.50;;;2.30;;